createdAt,value
2022-09-15T00:00:57.814Z,8.33
2022-09-15T00:03:25.358Z,9.32
2022-09-15T00:05:52.944Z,9.13
2022-09-15T00:08:20.456Z,9.50
2022-09-15T00:10:47.991Z,8.50
2022-09-15T00:13:16.333Z,7.43
2022-09-15T00:15:43.868Z,6.63
2022-09-15T00:18:11.412Z,8.85
2022-09-15T00:20:41.930Z,6.40
2022-09-15T00:23:09.455Z,8.83
2022-09-15T00:25:36.980Z,6.17
2022-09-15T00:28:04.544Z,8.15
2022-09-15T00:30:32.129Z,5.80
2022-09-15T00:32:59.603Z,7.60
2022-09-15T00:35:27.926Z,9.30
2022-09-15T00:37:55.451Z,6.72
2022-09-15T00:40:23.162Z,5.27
2022-09-15T00:42:50.619Z,7.00
2022-09-15T00:45:18.165Z,6.20
2022-09-15T00:47:45.699Z,6.70
2022-09-15T00:50:13.243Z,9.77
2022-09-15T00:52:50.180Z,7.30
2022-09-15T00:55:17.735Z,5.97
2022-09-15T00:58:02.983Z,3.70
2022-09-15T01:00:30.537Z,4.57
2022-09-15T01:02:58.072Z,4.07
2022-09-15T01:05:31.870Z,4.73
2022-09-15T01:08:00.203Z,3.40
2022-09-15T01:10:30.231Z,4.67
2022-09-15T01:12:57.763Z,3.13
2022-09-15T01:15:25.338Z,1.73
2022-09-15T01:18:04.885Z,2.20
2022-09-15T01:20:47.120Z,1.13
2022-09-15T01:23:33.514Z,2.13
2022-09-15T01:26:12.900Z,1.90
2022-09-15T01:28:46.091Z,3.00
2022-09-15T01:31:35.389Z,1.77
2022-09-15T01:34:08.675Z,0.10
2022-09-15T01:36:49.208Z,0.20
2022-09-15T01:39:19.410Z,0.23
2022-09-15T01:41:49.731Z,0.00
2022-09-15T01:44:23.695Z,2.43
2022-09-15T01:46:51.250Z,3.13
2022-09-15T01:49:18.774Z,1.83
2022-09-15T01:51:46.340Z,0.63
2022-09-15T01:54:13.874Z,0.63
2022-09-15T01:56:42.176Z,2.10
2022-09-15T01:59:09.732Z,0.63
2022-09-15T02:01:42.802Z,1.70
2022-09-15T02:04:10.274Z,0.17
2022-09-15T02:06:43.619Z,1.03
2022-09-15T02:09:11.154Z,0.37
2022-09-15T02:11:38.678Z,1.25
2022-09-15T02:14:15.126Z,2.27
2022-09-15T02:16:42.698Z,0.80
2022-09-15T02:19:41.086Z,0.30
2022-09-15T02:22:15.351Z,0.80
2022-09-15T02:24:42.885Z,1.37
2022-09-15T02:27:10.461Z,1.95
2022-09-15T02:29:37.985Z,1.00
2022-09-15T02:32:07.404Z,1.13
2022-09-15T02:34:33.852Z,2.13
2022-09-15T02:37:01.376Z,2.43
2022-09-15T02:39:28.901Z,3.47
2022-09-15T02:41:56.632Z,3.97
2022-09-15T02:44:24.130Z,4.20
2022-09-15T02:46:52.440Z,4.30
2022-09-15T02:49:20.015Z,4.03
2022-09-15T02:51:47.596Z,5.93
2022-09-15T02:54:15.126Z,5.63
2022-09-15T02:56:42.699Z,6.72
2022-09-15T02:59:10.283Z,7.63
2022-09-15T03:01:37.864Z,9.87
2022-09-15T03:04:05.364Z,8.30
2022-09-15T03:06:32.911Z,8.60
2022-09-15T03:09:00.452Z,6.23
2022-09-15T03:11:28.007Z,7.83
2022-09-15T03:13:56.309Z,6.87
2022-09-15T03:16:23.875Z,8.03
2022-09-15T03:18:52.167Z,10.03
2022-09-15T03:21:19.702Z,5.87
2022-09-15T03:23:47.247Z,8.23
2022-09-15T03:26:15.140Z,9.97
2022-09-15T03:28:42.661Z,7.53
2022-09-15T03:31:11.019Z,8.27
2022-09-15T03:33:38.516Z,13.73
2022-09-15T03:36:06.091Z,11.77
2022-09-15T03:38:33.625Z,8.87
2022-09-15T03:41:06.901Z,11.33
2022-09-15T03:43:35.194Z,13.57
2022-09-15T03:46:02.754Z,9.93
2022-09-15T03:48:30.286Z,12.87
2022-09-15T03:50:58.579Z,14.83
2022-09-15T03:53:26.891Z,15.17
2022-09-15T03:55:54.465Z,14.70
2022-09-15T03:58:22.030Z,15.80
2022-09-15T04:00:49.599Z,18.53
2022-09-15T04:03:17.160Z,17.00
2022-09-15T04:05:44.685Z,19.33
2022-09-15T04:08:12.229Z,21.60
2022-09-15T04:10:39.813Z,21.60
2022-09-15T04:13:07.339Z,23.03
2022-09-15T04:15:34.902Z,21.07
2022-09-15T04:18:02.466Z,23.73
2022-09-15T04:20:30.001Z,24.93
2022-09-15T04:22:58.305Z,25.10
2022-09-15T04:25:25.898Z,27.77
2022-09-15T04:27:53.443Z,25.00
2022-09-15T04:30:20.980Z,27.23
2022-09-15T04:32:50.629Z,30.00
2022-09-15T04:35:18.164Z,28.83
2022-09-15T04:37:45.729Z,32.78
2022-09-15T04:40:13.348Z,31.27
2022-09-15T04:42:40.871Z,28.63
2022-09-15T04:45:08.436Z,33.38
2022-09-15T04:47:36.020Z,27.23
2022-09-15T04:50:04.307Z,31.73
2022-09-15T04:52:31.851Z,32.10
2022-09-15T04:55:01.106Z,30.83
2022-09-15T04:57:28.661Z,32.60
2022-09-15T04:59:56.216Z,35.53
2022-09-15T05:02:23.852Z,30.30
2022-09-15T05:04:51.323Z,31.73
2022-09-15T05:07:18.878Z,30.50
2022-09-15T05:09:47.046Z,35.50
2022-09-15T05:12:15.151Z,27.90
2022-09-15T05:14:43.109Z,33.20
2022-09-15T05:17:10.704Z,33.73
2022-09-15T05:19:38.249Z,32.83
2022-09-15T05:22:05.783Z,35.87
2022-09-15T05:24:33.376Z,31.00
2022-09-15T05:27:00.990Z,35.73
2022-09-15T05:29:28.524Z,39.55
2022-09-15T05:31:56.173Z,36.03
2022-09-15T05:34:23.643Z,34.77
2022-09-15T05:36:51.207Z,38.80
2022-09-15T05:39:18.802Z,37.47
2022-09-15T05:41:46.337Z,34.50
2022-09-15T05:44:13.892Z,37.37
2022-09-15T05:46:41.525Z,35.53
2022-09-15T05:49:09.020Z,35.77
2022-09-15T05:51:36.557Z,34.93
2022-09-15T05:54:04.129Z,35.53
2022-09-15T05:56:31.655Z,38.90
2022-09-15T05:58:59.188Z,33.00
2022-09-15T06:01:26.835Z,34.10
2022-09-15T06:03:54.300Z,33.70
2022-09-15T06:06:21.855Z,34.80
2022-09-15T06:08:51.879Z,37.47
2022-09-15T06:11:16.980Z,34.40
2022-09-15T06:13:44.515Z,36.07
2022-09-15T06:16:12.181Z,35.70
2022-09-15T06:18:39.626Z,36.40
2022-09-15T06:21:13.272Z,35.53
2022-09-15T06:23:40.917Z,39.20
2022-09-15T06:26:08.487Z,39.78
2022-09-15T06:28:36.586Z,35.47
2022-09-15T06:31:04.961Z,42.97
2022-09-15T06:33:32.499Z,38.27
2022-09-15T06:36:00.043Z,38.00
2022-09-15T06:38:27.626Z,38.27
2022-09-15T06:40:55.187Z,34.97
2022-09-15T06:43:22.721Z,36.43
2022-09-15T06:45:50.335Z,41.37
2022-09-15T06:48:24.358Z,36.57
2022-09-15T06:50:45.378Z,38.67
2022-09-15T06:53:12.984Z,37.63
2022-09-15T06:55:40.527Z,37.73
2022-09-15T06:58:08.076Z,41.17
2022-09-15T07:00:35.678Z,35.67
2022-09-15T07:03:04.149Z,37.03
2022-09-15T07:05:31.533Z,37.67
2022-09-15T07:07:59.414Z,40.53
2022-09-15T07:10:26.947Z,39.07
2022-09-15T07:12:54.491Z,37.37
2022-09-15T07:15:22.849Z,41.90
2022-09-15T07:17:50.393Z,40.80
2022-09-15T07:20:17.931Z,40.12
2022-09-15T07:22:45.530Z,36.53
2022-09-15T07:25:13.067Z,37.37
2022-09-15T07:27:40.599Z,35.97
2022-09-15T07:30:08.245Z,36.90
2022-09-15T07:32:35.783Z,35.47
2022-09-15T07:35:04.095Z,34.07
2022-09-15T07:37:31.699Z,29.87
2022-09-15T07:39:59.510Z,32.57
2022-09-15T07:42:26.988Z,31.60
2022-09-15T07:44:54.591Z,30.73
2022-09-15T07:47:22.156Z,31.50
2022-09-15T07:49:49.707Z,32.23
2022-09-15T07:52:17.310Z,35.08
2022-09-15T07:54:44.846Z,31.58
2022-09-15T07:57:13.178Z,31.83
2022-09-15T07:59:41.404Z,30.50
2022-09-15T08:02:09.139Z,35.20
2022-09-15T08:04:36.711Z,34.53
2022-09-15T08:07:06.057Z,27.70
2022-09-15T08:09:33.740Z,30.43
2022-09-15T08:12:01.269Z,30.43
2022-09-15T08:14:28.859Z,29.20
2022-09-15T08:16:56.388Z,28.30
2022-09-15T08:19:23.922Z,31.80
2022-09-15T08:21:52.529Z,31.33
2022-09-15T08:24:20.064Z,39.50
2022-09-15T08:26:48.367Z,29.97
2022-09-15T08:29:17.194Z,27.20
2022-09-15T08:31:44.776Z,21.63
2022-09-15T08:34:12.241Z,26.87
2022-09-15T08:36:40.593Z,26.90
2022-09-15T08:39:08.137Z,23.40
2022-09-15T08:41:44.656Z,25.33
2022-09-15T08:44:31.538Z,25.13
2022-09-15T08:47:04.560Z,23.33
2022-09-15T08:49:50.412Z,20.33
2022-09-15T08:52:01.634Z,21.40
2022-09-15T08:54:29.190Z,19.43
2022-09-15T08:56:57.517Z,14.97
2022-09-15T08:59:25.099Z,18.03
2022-09-15T09:01:59.354Z,14.55
2022-09-15T09:04:47.841Z,13.47
2022-09-15T09:07:33.806Z,15.33
2022-09-15T09:10:19.857Z,12.10
2022-09-15T09:13:15.144Z,13.27
2022-09-15T09:15:57.293Z,13.97
2022-09-15T09:18:45.696Z,14.87
2022-09-15T09:21:13.280Z,10.83
2022-09-15T09:23:53.443Z,13.40
2022-09-15T09:26:20.963Z,11.73
2022-09-15T09:28:48.518Z,12.97
2022-09-15T09:31:16.087Z,9.30
2022-09-15T09:33:52.170Z,11.13
2022-09-15T09:36:20.472Z,8.73
2022-09-15T09:38:48.008Z,11.57
2022-09-15T09:41:19.313Z,7.80
2022-09-15T09:43:46.865Z,9.20
2022-09-15T09:46:14.459Z,9.23
2022-09-15T09:48:41.988Z,5.93
2022-09-15T09:51:31.109Z,7.57
2022-09-15T09:53:58.756Z,7.90
2022-09-15T09:56:26.263Z,6.47
2022-09-15T09:58:53.882Z,7.70
2022-09-15T10:01:21.454Z,10.23
2022-09-15T10:03:48.921Z,9.27
2022-09-15T10:06:16.445Z,9.80
2022-09-15T10:08:59.911Z,6.03
2022-09-15T10:11:42.738Z,7.70
2022-09-15T10:14:28.388Z,6.17
2022-09-15T10:17:11.085Z,7.30
2022-09-15T10:19:48.535Z,7.30
2022-09-15T10:22:31.027Z,7.10
2022-09-15T10:24:58.610Z,6.23
2022-09-15T10:27:26.146Z,6.23
2022-09-15T10:29:53.669Z,4.87
2022-09-15T10:32:25.622Z,6.60
2022-09-15T10:35:03.857Z,6.50
2022-09-15T10:37:34.698Z,4.10
2022-09-15T10:40:02.388Z,6.13
2022-09-15T10:42:36.287Z,6.55
2022-09-15T10:45:13.167Z,5.87
2022-09-15T10:47:46.413Z,6.27
2022-09-15T10:50:23.802Z,5.43
2022-09-15T10:52:58.013Z,4.97
2022-09-15T10:55:53.692Z,6.33
2022-09-15T10:58:26.789Z,4.13
2022-09-15T11:01:22.111Z,4.67
2022-09-15T11:03:59.226Z,4.12
2022-09-15T11:06:42.361Z,3.80
2022-09-15T11:09:25.029Z,4.73
2022-09-15T11:12:13.763Z,6.53
2022-09-15T11:14:59.577Z,4.62
2022-09-15T11:17:48.320Z,4.97
2022-09-15T11:20:27.819Z,2.77
2022-09-15T11:23:10.381Z,3.53
2022-09-15T11:25:37.903Z,6.10
2022-09-15T11:28:11.088Z,4.95
2022-09-15T11:30:38.663Z,8.90
2022-09-15T11:33:18.201Z,4.83
2022-09-15T11:36:03.794Z,5.00
2022-09-15T11:38:34.308Z,3.73
2022-09-15T11:41:22.932Z,7.00
2022-09-15T11:44:16.772Z,5.03
2022-09-15T11:46:47.828Z,4.57
2022-09-15T11:49:18.117Z,3.53
2022-09-15T11:51:45.652Z,3.10
2022-09-15T11:54:21.871Z,3.80
2022-09-15T11:56:50.173Z,5.03
2022-09-15T11:59:30.005Z,2.27
2022-09-15T12:01:57.624Z,3.10
2022-09-15T12:04:25.063Z,6.67
2022-09-15T12:06:55.410Z,7.23
2022-09-15T12:09:22.894Z,5.78
2022-09-15T12:11:51.197Z,5.40
2022-09-15T12:14:27.575Z,10.07
2022-09-15T12:16:55.111Z,5.80
2022-09-15T12:19:22.646Z,6.60
2022-09-15T12:21:51.254Z,3.73
2022-09-15T12:24:34.662Z,3.53
2022-09-15T12:27:03.038Z,4.63
2022-09-15T12:29:39.501Z,3.90
2022-09-15T12:32:25.509Z,2.87
2022-09-15T12:34:59.779Z,3.12
2022-09-15T12:37:30.140Z,5.27
2022-09-15T12:39:58.490Z,3.80
2022-09-15T12:42:28.659Z,3.57
2022-09-15T12:44:59.226Z,3.30
2022-09-15T12:47:36.012Z,2.33
2022-09-15T12:50:28.520Z,3.80
2022-09-15T12:53:01.723Z,7.18
2022-09-15T12:55:29.287Z,2.70
2022-09-15T12:57:56.847Z,5.30
2022-09-15T13:00:30.161Z,5.50
2022-09-15T13:02:57.828Z,2.17
2022-09-15T13:05:43.558Z,3.65
2022-09-15T13:08:11.850Z,3.80
2022-09-15T13:10:39.403Z,3.53
2022-09-15T13:13:16.017Z,7.13
2022-09-15T13:15:43.595Z,7.00
2022-09-15T13:18:11.945Z,7.70
2022-09-15T13:20:39.395Z,7.67
2022-09-15T13:23:06.930Z,6.53
2022-09-15T13:25:34.474Z,5.20
2022-09-15T13:28:02.427Z,4.83
2022-09-15T13:30:54.248Z,4.33
2022-09-15T13:36:19.674Z,6.33
2022-09-15T13:39:05.887Z,4.97
2022-09-15T13:41:55.959Z,4.93
2022-09-15T13:44:29.333Z,5.90
2022-09-15T13:47:05.601Z,5.77
2022-09-15T13:49:39.212Z,5.53
2022-09-15T13:52:19.117Z,5.73
2022-09-15T13:55:08.792Z,5.20
2022-09-15T14:00:03.869Z,4.80
2022-09-15T14:02:32.291Z,5.10
2022-09-15T14:04:59.755Z,3.90
2022-09-15T14:07:27.295Z,5.00
2022-09-15T14:09:55.167Z,5.83
2022-09-15T14:12:22.702Z,2.93
2022-09-15T14:14:50.986Z,6.00
2022-09-15T14:17:24.338Z,4.27
2022-09-15T14:19:52.021Z,4.97
2022-09-15T14:22:32.269Z,5.20
2022-09-15T14:24:59.803Z,4.03
2022-09-15T14:27:30.104Z,4.27
2022-09-15T14:29:57.704Z,3.67
2022-09-15T14:32:25.222Z,3.27
2022-09-15T14:34:52.748Z,3.23
2022-09-15T14:37:24.097Z,4.77
2022-09-15T14:39:51.582Z,6.60
2022-09-15T14:42:22.372Z,5.47
2022-09-15T14:47:20.478Z,6.87
2022-09-15T14:49:48.771Z,4.27
2022-09-15T14:52:25.371Z,3.30
2022-09-15T14:54:52.906Z,3.07
2022-09-15T14:57:20.526Z,3.30
2022-09-15T14:59:48.952Z,4.13
2022-09-15T15:02:25.054Z,9.30
2022-09-15T15:04:55.126Z,8.43
2022-09-15T15:07:25.350Z,5.20
2022-09-15T15:09:58.423Z,4.73
2022-09-15T15:12:29.447Z,5.27
2022-09-15T15:14:57.743Z,5.83
2022-09-15T15:17:25.254Z,4.47
2022-09-15T15:19:52.824Z,4.07
2022-09-15T15:22:20.374Z,5.30
2022-09-15T15:24:50.598Z,4.40
2022-09-15T15:27:23.965Z,5.77
2022-09-15T15:29:53.679Z,5.67
2022-09-15T15:32:21.201Z,5.10
2022-09-15T15:34:51.789Z,4.67
2022-09-15T15:37:25.384Z,5.50
2022-09-15T15:39:52.967Z,6.40
2022-09-15T15:42:20.980Z,5.43
2022-09-15T15:45:10.050Z,6.07
2022-09-15T15:47:37.642Z,4.90
2022-09-15T15:50:13.692Z,5.23
2022-09-15T15:52:39.046Z,6.85
2022-09-15T15:55:06.756Z,6.10
2022-09-15T15:57:37.255Z,6.87
2022-09-15T16:00:04.878Z,4.57
2022-09-15T16:02:32.463Z,3.90
2022-09-15T16:05:00.009Z,5.62
2022-09-15T16:07:32.632Z,6.03
2022-09-15T16:09:55.904Z,5.20
2022-09-15T16:12:23.418Z,3.77
2022-09-15T16:14:50.953Z,7.05
2022-09-15T16:17:19.569Z,4.63
2022-09-15T16:19:47.095Z,6.23
2022-09-15T16:22:18.119Z,5.00
2022-09-15T16:24:46.859Z,7.43
2022-09-15T16:27:17.308Z,7.10
2022-09-15T16:29:44.847Z,6.47
2022-09-15T16:32:21.430Z,5.77
2022-09-15T16:34:51.657Z,3.97
2022-09-15T16:37:19.182Z,4.37
2022-09-15T16:39:46.777Z,5.67
2022-09-15T16:42:14.265Z,5.47
2022-09-15T16:44:41.791Z,5.20
2022-09-15T16:47:09.414Z,3.80
2022-09-15T16:49:36.949Z,6.93
2022-09-15T16:52:05.241Z,4.63
2022-09-15T16:54:33.564Z,6.03
2022-09-15T16:57:01.122Z,5.50
2022-09-15T16:59:28.643Z,8.80
2022-09-15T17:01:56.276Z,8.70
2022-09-15T17:04:24.220Z,10.83
2022-09-15T17:06:51.760Z,7.10
2022-09-15T17:09:20.298Z,9.10
2022-09-15T17:11:48.582Z,9.30
2022-09-15T17:14:16.884Z,6.03
2022-09-15T17:16:44.464Z,6.07
2022-09-15T17:19:11.998Z,8.87
2022-09-15T17:21:39.525Z,6.83
2022-09-15T17:24:07.877Z,7.13
2022-09-15T17:26:35.405Z,7.90
2022-09-15T17:29:02.938Z,8.30
2022-09-15T17:31:30.561Z,9.90
2022-09-15T17:33:58.067Z,9.17
2022-09-15T17:36:25.596Z,8.20
2022-09-15T17:38:54.732Z,9.47
2022-09-15T17:41:24.999Z,8.20
2022-09-15T17:43:52.594Z,7.10
2022-09-15T17:46:20.679Z,7.43
2022-09-15T17:48:48.154Z,12.17
2022-09-15T17:51:15.747Z,4.77
2022-09-15T17:53:43.438Z,8.37
2022-09-15T17:56:11.244Z,8.47
2022-09-15T17:58:38.780Z,6.93
2022-09-15T18:01:07.002Z,5.70
2022-09-15T18:03:34.574Z,8.80
2022-09-15T18:06:02.059Z,5.40
2022-09-15T18:08:29.647Z,7.60
2022-09-15T18:10:57.266Z,3.93
2022-09-15T18:13:25.717Z,6.40
2022-09-15T18:15:53.471Z,6.93
2022-09-15T18:18:20.956Z,6.65
2022-09-15T18:20:49.256Z,4.47
2022-09-15T18:23:16.820Z,4.73
2022-09-15T18:25:44.352Z,4.60
2022-09-15T18:28:12.656Z,2.90
2022-09-15T18:30:43.235Z,4.33
2022-09-15T18:33:16.522Z,4.63
2022-09-15T18:35:44.066Z,4.77
2022-09-15T18:38:12.229Z,4.72
2022-09-15T18:40:39.733Z,4.67
2022-09-15T18:43:07.272Z,4.63
2022-09-15T18:45:34.867Z,6.00
2022-09-15T18:48:03.264Z,8.07
2022-09-15T18:50:30.880Z,6.47
2022-09-15T18:52:58.456Z,4.93
2022-09-15T18:55:26.756Z,3.83
2022-09-15T18:57:56.828Z,4.80
2022-09-15T19:00:21.964Z,3.07
2022-09-15T19:02:50.257Z,4.10
2022-09-15T19:05:17.792Z,3.30
2022-09-15T19:07:46.138Z,11.17
2022-09-15T19:10:14.195Z,3.77
2022-09-15T19:12:42.063Z,6.93
2022-09-15T19:15:11.312Z,4.20
2022-09-15T19:17:37.289Z,4.30
2022-09-15T19:20:04.863Z,5.00
2022-09-15T19:22:32.393Z,6.50
2022-09-15T19:24:59.915Z,5.23
2022-09-15T19:27:28.217Z,8.20
2022-09-15T19:29:55.799Z,4.33
2022-09-15T19:32:23.347Z,5.17
2022-09-15T19:34:50.897Z,4.70
2022-09-15T19:37:19.024Z,6.63
2022-09-15T19:39:46.049Z,3.80
2022-09-15T19:44:41.148Z,2.60
2022-09-15T19:47:08.682Z,4.27
2022-09-15T19:49:36.226Z,4.13
2022-09-15T19:52:03.796Z,5.55
2022-09-15T19:54:31.320Z,2.93
2022-09-15T19:56:59.633Z,5.77
2022-09-15T19:59:31.045Z,3.10
2022-09-15T20:01:55.063Z,5.17
2022-09-15T20:04:23.395Z,5.80
2022-09-15T20:06:51.403Z,4.53
2022-09-15T20:09:18.948Z,2.53
2022-09-15T20:11:47.253Z,7.13
2022-09-15T20:14:14.836Z,9.80
2022-09-15T20:16:42.437Z,4.73
2022-09-15T20:19:09.917Z,4.10
2022-09-15T20:21:52.769Z,4.57
2022-09-15T20:24:05.035Z,4.47
2022-09-15T20:26:32.579Z,5.47
2022-09-15T20:29:00.912Z,4.40
2022-09-15T20:31:28.446Z,4.10
2022-09-15T20:33:55.980Z,6.12
2022-09-15T20:36:23.569Z,5.00
2022-09-15T20:38:51.117Z,4.30
2022-09-15T20:41:18.649Z,6.37
2022-09-15T20:43:46.238Z,6.87
2022-09-15T20:46:13.805Z,5.40
2022-09-15T20:48:42.087Z,6.53
2022-09-15T20:51:15.442Z,8.10
2022-09-15T20:53:43.750Z,4.60
2022-09-15T20:56:11.296Z,5.03
2022-09-15T20:58:38.908Z,7.07
2022-09-15T21:01:06.493Z,6.57
2022-09-15T21:03:33.969Z,3.50
2022-09-15T21:06:04.092Z,4.90
2022-09-15T21:08:31.639Z,7.53
2022-09-15T21:10:59.192Z,10.10
2022-09-15T21:13:30.508Z,5.20
2022-09-15T21:16:00.794Z,5.67
2022-09-15T21:18:30.857Z,6.28
2022-09-15T21:20:58.438Z,5.00
2022-09-15T21:23:25.973Z,7.20
2022-09-15T21:26:02.324Z,5.23
2022-09-15T21:28:29.667Z,5.00
2022-09-15T21:31:03.102Z,3.30
2022-09-15T21:33:31.415Z,6.77
2022-09-15T21:36:10.883Z,7.80
2022-09-15T21:38:38.408Z,8.00
2022-09-15T21:41:05.951Z,5.20
2022-09-15T21:43:33.551Z,6.43
2022-09-15T21:46:01.231Z,6.23
2022-09-15T21:48:28.619Z,4.20
2022-09-15T21:50:57.030Z,4.47
2022-09-15T21:53:24.566Z,4.30
2022-09-15T21:55:52.123Z,7.37
2022-09-15T21:58:20.452Z,3.83
2022-09-15T22:00:48.027Z,4.27
2022-09-15T22:03:15.526Z,4.27
2022-09-15T22:05:44.124Z,6.53
2022-09-15T22:08:11.678Z,7.13
2022-09-15T22:10:39.213Z,5.47
2022-09-15T22:13:07.106Z,3.33
2022-09-15T22:15:34.527Z,5.80
2022-09-15T22:18:02.838Z,6.03
2022-09-15T22:20:30.431Z,8.13
2022-09-15T22:22:57.986Z,7.13
2022-09-15T22:25:25.557Z,6.60
2022-09-15T22:27:53.139Z,5.90
2022-09-15T22:30:21.442Z,7.23
2022-09-15T22:32:48.981Z,4.47
2022-09-15T22:35:17.329Z,9.10
2022-09-15T22:37:44.862Z,6.20
2022-09-15T22:40:12.434Z,8.40
2022-09-15T22:42:40.010Z,7.23
2022-09-15T22:45:07.747Z,4.40
2022-09-15T22:47:35.263Z,8.30
2022-09-15T22:50:02.837Z,4.83
2022-09-15T22:52:30.362Z,5.93
2022-09-15T22:54:58.669Z,6.50
2022-09-15T22:57:26.221Z,3.93
2022-09-15T22:59:53.775Z,4.90
2022-09-15T23:02:22.179Z,5.50
2022-09-15T23:04:49.675Z,8.70
2022-09-15T23:07:17.252Z,6.50
2022-09-15T23:09:44.742Z,6.83
2022-09-15T23:12:12.307Z,7.53
2022-09-15T23:14:39.853Z,6.77
2022-09-15T23:17:07.389Z,9.37
2022-09-15T23:19:36.016Z,5.13
2022-09-15T23:22:03.560Z,7.17
2022-09-15T23:24:31.205Z,5.67
2022-09-15T23:26:59.528Z,6.20
2022-09-15T23:29:27.093Z,11.67
2022-09-15T23:31:54.670Z,5.33
2022-09-15T23:34:22.200Z,7.07
2022-09-15T23:36:49.746Z,10.10
2022-09-15T23:39:17.260Z,3.70
2022-09-15T23:41:45.613Z,9.57
2022-09-15T23:44:13.167Z,5.63
2022-09-15T23:46:40.757Z,10.20
2022-09-15T23:49:08.571Z,7.75
2022-09-15T23:51:36.106Z,4.37
2022-09-15T23:54:03.660Z,5.40
2022-09-15T23:56:32.948Z,6.97
2022-09-15T23:59:01.291Z,4.13
